Time;durP1;ratioP1;P1;durP2;ratioP2;P2;SDS_P1;SDS_P2;PMS_P1;PMS_P2;Temp;Humidity;BMP_temperature;BMP_pressure;BME280_temperature;BME280_humidity;BME280_pressure;Samples;Min_cycle;Max_cycle;Signal;HPM_P1;HPM_P2
2021/10/03 00:01:11;;;;;;;2.53;0.50;;;;;;;;;;5061505;28;20043;-61
2021/10/03 00:03:40;;;;;;;2.13;0.52;;;;;;;;;;5059457;28;20137;-61
2021/10/03 00:06:07;;;;;;;8.32;0.80;;;;;;;;;;5032357;28;20028;-60
2021/10/03 00:08:33;;;;;;;2.67;0.60;;;;;;;;;;5046975;28;20037;-62
2021/10/03 00:10:59;;;;;;;1.67;0.52;;;;;;;;;;5054717;28;20035;-63
2021/10/03 00:13:26;;;;;;;2.25;0.60;;;;;;;;;;5036470;28;20044;-64
2021/10/03 00:15:53;;;;;;;2.45;0.60;;;;;;;;;;5061090;28;20040;-61
2021/10/03 00:18:19;;;;;;;2.05;0.60;;;;;;;;;;5065094;28;20040;-61
2021/10/03 00:20:45;;;;;;;1.75;0.55;;;;;;;;;;5074618;28;20682;-61
2021/10/03 00:23:11;;;;;;;3.95;0.80;;;;;;;;;;5071012;28;20044;-60
2021/10/03 00:25:37;;;;;;;1.52;0.40;;;;;;;;;;5071597;28;20688;-61
2021/10/03 00:28:05;;;;;;;4.35;0.70;;;;;;;;;;5073199;28;20101;-60
2021/10/03 00:30:32;;;;;;;3.80;0.70;;;;;;;;;;5071684;28;20071;-61
2021/10/03 00:32:58;;;;;;;2.92;0.60;;;;;;;;;;5071848;28;20068;-61
2021/10/03 00:35:24;;;;;;;2.15;0.50;;;;;;;;;;5071531;28;20090;-61
2021/10/03 00:37:50;;;;;;;3.22;0.60;;;;;;;;;;5072954;28;20039;-61
2021/10/03 00:40:16;;;;;;;10.20;0.85;;;;;;;;;;5058024;28;20043;-62
2021/10/03 00:42:42;;;;;;;3.40;0.70;;;;;;;;;;5073425;28;20059;-61
2021/10/03 00:45:09;;;;;;;2.80;0.60;;;;;;;;;;5073833;28;20044;-60
2021/10/03 00:47:36;;;;;;;2.72;0.63;;;;;;;;;;5053077;28;20055;-61
2021/10/03 00:50:02;;;;;;;5.80;0.80;;;;;;;;;;5073699;28;20036;-61
2021/10/03 00:52:28;;;;;;;2.63;0.50;;;;;;;;;;5072124;28;20121;-60
2021/10/03 00:54:53;;;;;;;3.95;0.65;;;;;;;;;;5072389;28;20044;-61
2021/10/03 00:57:19;;;;;;;2.13;0.60;;;;;;;;;;5071164;28;20039;-62
2021/10/03 00:59:45;;;;;;;1.98;0.70;;;;;;;;;;5075592;28;20070;-63
2021/10/03 01:02:11;;;;;;;2.47;0.50;;;;;;;;;;5076185;28;20079;-61
2021/10/03 01:04:37;;;;;;;2.22;0.57;;;;;;;;;;5075619;28;21002;-63
2021/10/03 01:07:03;;;;;;;3.00;0.70;;;;;;;;;;5079715;28;20028;-63
2021/10/03 01:09:29;;;;;;;1.80;0.50;;;;;;;;;;5081347;28;20522;-63
2021/10/03 01:11:54;;;;;;;1.65;0.57;;;;;;;;;;5082279;28;20048;-62
2021/10/03 01:14:20;;;;;;;3.90;0.70;;;;;;;;;;5078285;28;20449;-65
2021/10/03 01:16:48;;;;;;;2.88;0.60;;;;;;;;;;5073669;28;20043;-64
2021/10/03 01:19:13;;;;;;;2.45;0.70;;;;;;;;;;5071811;28;20511;-63
2021/10/03 01:21:41;;;;;;;1.48;0.40;;;;;;;;;;5077176;28;20029;-61
2021/10/03 01:24:07;;;;;;;3.05;0.63;;;;;;;;;;5062145;28;20139;-61
2021/10/03 01:26:33;;;;;;;4.07;0.70;;;;;;;;;;5078960;28;20129;-62
2021/10/03 01:28:59;;;;;;;2.20;0.60;;;;;;;;;;5075271;28;20075;-61
2021/10/03 01:31:26;;;;;;;3.00;0.73;;;;;;;;;;5073622;28;20044;-63
2021/10/03 01:33:52;;;;;;;3.00;0.70;;;;;;;;;;5074978;28;20055;-63
2021/10/03 01:36:19;;;;;;;7.65;1.08;;;;;;;;;;5070615;28;20458;-62
2021/10/03 01:38:45;;;;;;;2.15;0.60;;;;;;;;;;5074676;28;20097;-62
2021/10/03 01:41:11;;;;;;;1.67;0.40;;;;;;;;;;5073456;28;20040;-62
2021/10/03 01:43:36;;;;;;;1.75;0.55;;;;;;;;;;5069973;28;20041;-61
2021/10/03 01:46:02;;;;;;;1.77;0.60;;;;;;;;;;5070910;28;20040;-63
2021/10/03 01:48:28;;;;;;;2.13;0.60;;;;;;;;;;5069030;28;20067;-60
2021/10/03 01:50:56;;;;;;;3.65;0.63;;;;;;;;;;5072867;28;20045;-61
2021/10/03 01:53:27;;;;;;;1.63;0.60;;;;;;;;;;5071037;28;20520;-62
2021/10/03 01:55:54;;;;;;;2.67;0.73;;;;;;;;;;5070235;28;20193;-61
2021/10/03 01:58:21;;;;;;;3.10;0.73;;;;;;;;;;5071451;28;20040;-59
2021/10/03 02:00:49;;;;;;;4.78;0.60;;;;;;;;;;5071159;28;20040;-60
2021/10/03 02:03:15;;;;;;;2.10;0.70;;;;;;;;;;5072369;28;20075;-60
2021/10/03 02:05:42;;;;;;;2.22;0.75;;;;;;;;;;5068799;28;20688;-59
2021/10/03 02:08:09;;;;;;;2.97;0.60;;;;;;;;;;5071204;28;20044;-61
2021/10/03 02:10:37;;;;;;;6.38;0.70;;;;;;;;;;5072111;28;20104;-63
2021/10/03 02:13:04;;;;;;;3.90;0.68;;;;;;;;;;5072215;28;20052;-61
2021/10/03 02:15:30;;;;;;;3.63;0.73;;;;;;;;;;5072650;28;20093;-61
2021/10/03 02:17:56;;;;;;;3.55;0.85;;;;;;;;;;5072936;28;20070;-62
2021/10/03 02:20:21;;;;;;;2.67;0.75;;;;;;;;;;5069407;28;20132;-61
2021/10/03 02:22:48;;;;;;;2.00;0.60;;;;;;;;;;5068946;28;20443;-61
2021/10/03 02:25:15;;;;;;;2.45;0.77;;;;;;;;;;5068983;28;20082;-62
2021/10/03 02:27:41;;;;;;;3.95;0.95;;;;;;;;;;5069307;28;20050;-60
2021/10/03 02:30:08;;;;;;;2.63;0.80;;;;;;;;;;5070532;28;20127;-61
2021/10/03 02:32:34;;;;;;;3.50;0.90;;;;;;;;;;5069877;28;20539;-61
2021/10/03 02:35:00;;;;;;;3.75;0.80;;;;;;;;;;5070105;28;20048;-60
2021/10/03 02:37:26;;;;;;;4.28;1.63;;;;;;;;;;5067958;28;20048;-63
2021/10/03 02:39:53;;;;;;;6.35;0.82;;;;;;;;;;5069345;28;20051;-61
2021/10/03 02:42:19;;;;;;;1.98;0.60;;;;;;;;;;5068063;28;20623;-61
2021/10/03 02:44:45;;;;;;;2.95;0.85;;;;;;;;;;5052202;28;20850;-61
2021/10/03 02:47:11;;;;;;;2.40;0.70;;;;;;;;;;5069160;28;20028;-63
2021/10/03 02:49:38;;;;;;;6.40;0.75;;;;;;;;;;5069592;28;20121;-60
2021/10/03 02:52:04;;;;;;;3.22;0.80;;;;;;;;;;5069522;28;20036;-61
2021/10/03 02:54:30;;;;;;;7.88;0.90;;;;;;;;;;5055815;28;20043;-62
2021/10/03 02:56:56;;;;;;;3.05;0.70;;;;;;;;;;5069825;28;20479;-62
2021/10/03 02:59:22;;;;;;;5.22;0.95;;;;;;;;;;5068230;28;20040;-61
2021/10/03 03:01:48;;;;;;;4.25;0.70;;;;;;;;;;5069271;28;20111;-60
2021/10/03 03:04:13;;;;;;;4.20;1.13;;;;;;;;;;5068125;28;20059;-61
2021/10/03 03:06:39;;;;;;;3.22;0.80;;;;;;;;;;5051207;28;20163;-61
2021/10/03 03:09:05;;;;;;;4.43;0.90;;;;;;;;;;5065663;28;20527;-59
2021/10/03 03:11:31;;;;;;;5.00;0.73;;;;;;;;;;5079132;28;20082;-61
2021/10/03 03:13:57;;;;;;;4.40;0.93;;;;;;;;;;5070008;28;20102;-61
2021/10/03 03:16:23;;;;;;;2.30;0.60;;;;;;;;;;5070247;28;20064;-61
2021/10/03 03:18:49;;;;;;;3.85;0.65;;;;;;;;;;5068889;28;20487;-61
2021/10/03 03:21:14;;;;;;;1.75;0.60;;;;;;;;;;5069895;28;20067;-61
2021/10/03 03:23:41;;;;;;;1.50;0.50;;;;;;;;;;5069140;28;20155;-60
2021/10/03 03:26:06;;;;;;;1.60;0.55;;;;;;;;;;5069851;28;20111;-59
2021/10/03 03:28:32;;;;;;;1.60;0.50;;;;;;;;;;5072508;28;20092;-60
2021/10/03 03:30:59;;;;;;;3.05;0.73;;;;;;;;;;5071385;28;20036;-60
2021/10/03 03:33:25;;;;;;;4.13;0.60;;;;;;;;;;5072135;28;20032;-61
2021/10/03 03:35:51;;;;;;;1.45;0.57;;;;;;;;;;5069907;28;20145;-60
2021/10/03 03:38:17;;;;;;;2.78;0.65;;;;;;;;;;5073165;28;20532;-61
2021/10/03 03:40:43;;;;;;;2.75;0.60;;;;;;;;;;5072751;28;20444;-60
2021/10/03 03:43:09;;;;;;;3.53;0.70;;;;;;;;;;5073921;28;20047;-62
2021/10/03 03:45:35;;;;;;;1.85;0.60;;;;;;;;;;5056383;28;20060;-63
2021/10/03 03:48:01;;;;;;;3.00;0.57;;;;;;;;;;5064509;28;20036;-59
2021/10/03 03:50:29;;;;;;;6.18;0.70;;;;;;;;;;5069966;28;20047;-60
2021/10/03 03:52:55;;;;;;;2.10;0.60;;;;;;;;;;5072503;28;20067;-60
2021/10/03 03:55:21;;;;;;;5.85;1.33;;;;;;;;;;5073503;28;20078;-62
2021/10/03 03:57:49;;;;;;;3.58;0.70;;;;;;;;;;5075752;28;20045;-60
2021/10/03 04:00:15;;;;;;;4.35;0.60;;;;;;;;;;5058930;28;20083;-60
2021/10/03 04:02:41;;;;;;;10.55;0.98;;;;;;;;;;5075690;28;20056;-61
2021/10/03 04:05:07;;;;;;;4.78;0.95;;;;;;;;;;5075066;28;20043;-61
2021/10/03 04:07:33;;;;;;;1.48;0.50;;;;;;;;;;5076475;28;20054;-60
2021/10/03 04:09:59;;;;;;;1.30;0.45;;;;;;;;;;5075531;28;20040;-61
2021/10/03 04:12:25;;;;;;;2.00;0.50;;;;;;;;;;5075064;28;20052;-60
2021/10/03 04:14:51;;;;;;;3.13;0.60;;;;;;;;;;5050144;28;20052;-62
2021/10/03 04:17:16;;;;;;;3.65;0.50;;;;;;;;;;5079318;28;20051;-62
2021/10/03 04:19:42;;;;;;;1.77;0.55;;;;;;;;;;5078031;28;20042;-60
2021/10/03 04:22:08;;;;;;;2.13;0.63;;;;;;;;;;5076984;28;20094;-62
2021/10/03 04:24:34;;;;;;;1.83;0.50;;;;;;;;;;5074001;28;20052;-61
2021/10/03 04:27:00;;;;;;;2.33;0.70;;;;;;;;;;5075738;28;20528;-61
2021/10/03 04:29:26;;;;;;;1.83;0.65;;;;;;;;;;5075351;28;20043;-62
2021/10/03 04:31:52;;;;;;;1.92;0.68;;;;;;;;;;5064612;28;20109;-63
2021/10/03 04:34:21;;;;;;;1.35;0.50;;;;;;;;;;5069972;28;20476;-60
2021/10/03 04:36:46;;;;;;;1.30;0.47;;;;;;;;;;5073288;28;20047;-60
2021/10/03 04:39:32;;;;;;;1.63;0.50;;;;;;;;;;5030980;28;20044;-60
2021/10/03 04:41:59;;;;;;;1.80;0.57;;;;;;;;;;5045529;28;20090;-60
2021/10/03 04:44:25;;;;;;;2.40;0.60;;;;;;;;;;5028614;28;20051;-59
2021/10/03 04:46:51;;;;;;;1.73;0.50;;;;;;;;;;5044146;28;20032;-60
2021/10/03 04:49:17;;;;;;;1.85;0.50;;;;;;;;;;5045320;28;20044;-59
2021/10/03 04:51:43;;;;;;;1.85;0.60;;;;;;;;;;5044975;28;20037;-59
2021/10/03 04:54:09;;;;;;;1.83;0.52;;;;;;;;;;5049081;28;20120;-58
2021/10/03 04:56:35;;;;;;;1.25;0.47;;;;;;;;;;5049968;28;20036;-60
2021/10/03 04:59:01;;;;;;;1.48;0.50;;;;;;;;;;5047730;28;20041;-59
2021/10/03 05:01:26;;;;;;;1.90;0.50;;;;;;;;;;5045799;28;20045;-57
2021/10/03 05:03:52;;;;;;;5.50;0.60;;;;;;;;;;5062459;28;20052;-59
2021/10/03 05:06:18;;;;;;;2.22;0.50;;;;;;;;;;5047244;28;20048;-59
2021/10/03 05:08:44;;;;;;;1.67;0.57;;;;;;;;;;5049357;28;20070;-60
2021/10/03 05:11:10;;;;;;;2.53;0.70;;;;;;;;;;5047515;28;20059;-61
2021/10/03 05:13:36;;;;;;;1.55;0.50;;;;;;;;;;5048403;28;20036;-59
2021/10/03 05:16:02;;;;;;;2.10;0.60;;;;;;;;;;5048566;28;20076;-60
2021/10/03 05:18:28;;;;;;;1.80;0.50;;;;;;;;;;5071797;28;20123;-58
2021/10/03 05:20:54;;;;;;;1.83;0.50;;;;;;;;;;5074377;28;20044;-60
2021/10/03 05:23:19;;;;;;;3.10;0.50;;;;;;;;;;5070856;28;20150;-59
2021/10/03 05:25:45;;;;;;;2.35;0.50;;;;;;;;;;5069220;28;20898;-58
2021/10/03 05:28:11;;;;;;;1.58;0.52;;;;;;;;;;5071529;28;20035;-61
2021/10/03 05:30:37;;;;;;;2.90;0.90;;;;;;;;;;5071278;28;22045;-60
2021/10/03 05:33:03;;;;;;;1.85;0.50;;;;;;;;;;5071020;28;20042;-59
2021/10/03 05:35:29;;;;;;;3.30;0.70;;;;;;;;;;5070366;28;20373;-59
2021/10/03 05:37:55;;;;;;;2.40;0.70;;;;;;;;;;5073904;28;20085;-55
2021/10/03 05:40:20;;;;;;;2.80;0.80;;;;;;;;;;5072401;28;20058;-60
2021/10/03 05:42:46;;;;;;;4.40;0.60;;;;;;;;;;5071530;28;20579;-59
2021/10/03 05:45:12;;;;;;;2.17;0.60;;;;;;;;;;5070654;28;20043;-59
2021/10/03 05:47:38;;;;;;;2.13;0.60;;;;;;;;;;5068825;28;20047;-58
2021/10/03 05:50:05;;;;;;;2.05;0.60;;;;;;;;;;5071489;28;20044;-59
2021/10/03 05:52:31;;;;;;;1.98;0.57;;;;;;;;;;5050119;28;20687;-60
2021/10/03 05:54:57;;;;;;;2.00;0.70;;;;;;;;;;5049956;28;20856;-55
2021/10/03 05:57:22;;;;;;;2.45;0.60;;;;;;;;;;5068933;28;20562;-56
2021/10/03 05:59:48;;;;;;;1.58;0.50;;;;;;;;;;5071021;28;20036;-60
2021/10/03 06:02:14;;;;;;;1.73;0.50;;;;;;;;;;5071825;28;20036;-58
2021/10/03 06:04:40;;;;;;;1.95;0.68;;;;;;;;;;5069606;28;20465;-60
2021/10/03 06:07:25;;;;;;;1.98;0.70;;;;;;;;;;5023405;28;20037;-59
2021/10/03 06:09:51;;;;;;;2.20;0.70;;;;;;;;;;5026634;28;20087;-59
2021/10/03 06:12:17;;;;;;;2.25;0.70;;;;;;;;;;5026685;28;20080;-57
2021/10/03 06:14:43;;;;;;;2.92;0.65;;;;;;;;;;5024750;28;20060;-59
2021/10/03 06:17:09;;;;;;;2.72;0.70;;;;;;;;;;5009286;28;20045;-59
2021/10/03 06:19:34;;;;;;;4.30;0.73;;;;;;;;;;5026590;28;20106;-59
2021/10/03 06:22:01;;;;;;;1.75;0.60;;;;;;;;;;5021820;28;20576;-60
2021/10/03 06:24:27;;;;;;;2.95;0.70;;;;;;;;;;5022821;28;20065;-60
2021/10/03 06:26:53;;;;;;;2.33;0.70;;;;;;;;;;5024444;28;20032;-60
2021/10/03 06:29:19;;;;;;;2.33;0.50;;;;;;;;;;5006094;28;20052;-59
2021/10/03 06:31:45;;;;;;;1.83;0.60;;;;;;;;;;5024435;28;20064;-61
2021/10/03 06:34:11;;;;;;;3.58;0.70;;;;;;;;;;5024859;28;20044;-61
2021/10/03 06:36:37;;;;;;;3.40;0.80;;;;;;;;;;5023308;28;20037;-61
2021/10/03 06:39:03;;;;;;;3.80;0.80;;;;;;;;;;5039768;28;20792;-60
2021/10/03 06:41:29;;;;;;;1.67;0.55;;;;;;;;;;5058550;28;20062;-62
2021/10/03 06:43:55;;;;;;;2.70;0.90;;;;;;;;;;5049183;28;20057;-61
2021/10/03 06:46:21;;;;;;;1.88;0.60;;;;;;;;;;5066079;28;20040;-62
2021/10/03 06:48:46;;;;;;;3.63;0.77;;;;;;;;;;5064005;28;20040;-60
2021/10/03 06:51:14;;;;;;;2.97;0.80;;;;;;;;;;5069045;28;21472;-62
2021/10/03 06:53:40;;;;;;;2.40;0.70;;;;;;;;;;5065591;28;20085;-61
2021/10/03 06:56:06;;;;;;;3.10;0.68;;;;;;;;;;5067269;28;20043;-60
2021/10/03 06:58:32;;;;;;;2.13;0.60;;;;;;;;;;5067147;28;20043;-61
2021/10/03 07:00:58;;;;;;;2.17;0.60;;;;;;;;;;5068091;28;20041;-61
2021/10/03 07:03:23;;;;;;;2.42;0.65;;;;;;;;;;5065536;28;20710;-61
2021/10/03 07:05:49;;;;;;;1.85;0.65;;;;;;;;;;5069787;28;20119;-59
2021/10/03 07:08:15;;;;;;;1.30;0.50;;;;;;;;;;5069419;28;20060;-61
2021/10/03 07:10:42;;;;;;;2.17;0.70;;;;;;;;;;5067359;28;20052;-61
2021/10/03 07:13:11;;;;;;;3.05;0.88;;;;;;;;;;5066507;28;20052;-60
2021/10/03 07:15:39;;;;;;;2.10;0.65;;;;;;;;;;5066447;28;20045;-61
2021/10/03 07:18:07;;;;;;;2.47;0.73;;;;;;;;;;5068687;28;20028;-61
2021/10/03 07:20:33;;;;;;;2.95;0.90;;;;;;;;;;5045007;28;20920;-59
2021/10/03 07:22:59;;;;;;;2.35;0.80;;;;;;;;;;5055117;28;20048;-60
2021/10/03 07:25:25;;;;;;;2.70;0.80;;;;;;;;;;5047286;28;20108;-60
2021/10/03 07:27:51;;;;;;;2.80;0.70;;;;;;;;;;5045508;28;20114;-60
2021/10/03 07:30:17;;;;;;;2.58;0.80;;;;;;;;;;5060473;28;20291;-58
2021/10/03 07:32:43;;;;;;;2.90;1.10;;;;;;;;;;5050054;28;20052;-59
2021/10/03 07:35:10;;;;;;;3.25;1.10;;;;;;;;;;5049047;28;20041;-60
2021/10/03 07:37:36;;;;;;;3.45;1.00;;;;;;;;;;5069438;28;20092;-58
2021/10/03 07:40:03;;;;;;;3.78;1.40;;;;;;;;;;5069567;28;20052;-60
2021/10/03 07:42:29;;;;;;;7.03;1.45;;;;;;;;;;5070741;28;20123;-61
2021/10/03 07:44:55;;;;;;;5.50;1.63;;;;;;;;;;5070912;28;20800;-61
2021/10/03 07:47:21;;;;;;;3.10;1.13;;;;;;;;;;5071694;28;20052;-59
2021/10/03 07:49:47;;;;;;;4.65;1.25;;;;;;;;;;5069752;28;20485;-59
2021/10/03 07:52:13;;;;;;;2.35;0.93;;;;;;;;;;5068907;28;20036;-61
2021/10/03 07:54:38;;;;;;;3.70;1.10;;;;;;;;;;5069444;28;20070;-60
2021/10/03 07:57:04;;;;;;;3.58;1.15;;;;;;;;;;5066782;28;20036;-61
2021/10/03 07:59:30;;;;;;;2.42;0.80;;;;;;;;;;5067435;28;20128;-60
2021/10/03 08:01:56;;;;;;;2.20;0.80;;;;;;;;;;5069213;28;20076;-60
2021/10/03 08:04:22;;;;;;;2.33;0.80;;;;;;;;;;5066833;28;20044;-60
2021/10/03 08:06:48;;;;;;;3.53;0.88;;;;;;;;;;5066518;28;20665;-60
2021/10/03 08:09:14;;;;;;;3.10;1.00;;;;;;;;;;5068415;28;20860;-57
2021/10/03 08:11:40;;;;;;;3.28;0.90;;;;;;;;;;5066900;28;20044;-60
2021/10/03 08:14:05;;;;;;;2.17;0.77;;;;;;;;;;5068549;28;20052;-59
2021/10/03 08:16:31;;;;;;;3.40;1.00;;;;;;;;;;5057952;28;20033;-60
2021/10/03 08:19:00;;;;;;;1.90;0.60;;;;;;;;;;5051452;28;20152;-59
2021/10/03 08:21:26;;;;;;;2.70;0.80;;;;;;;;;;5049914;28;20145;-60
2021/10/03 08:23:52;;;;;;;2.30;0.80;;;;;;;;;;5047208;28;20052;-60
2021/10/03 08:26:18;;;;;;;2.25;0.75;;;;;;;;;;5048052;28;20535;-59
2021/10/03 08:28:44;;;;;;;4.38;1.00;;;;;;;;;;5073484;28;20062;-58
2021/10/03 08:31:10;;;;;;;1.88;0.50;;;;;;;;;;5073842;28;20404;-60
2021/10/03 08:33:37;;;;;;;2.40;0.80;;;;;;;;;;5071652;28;20083;-60
2021/10/03 08:36:03;;;;;;;4.70;0.90;;;;;;;;;;5072744;28;20052;-60
2021/10/03 08:38:29;;;;;;;4.00;0.73;;;;;;;;;;5071820;28;20047;-60
2021/10/03 08:40:55;;;;;;;2.47;0.90;;;;;;;;;;5074507;28;20044;-60
2021/10/03 08:43:21;;;;;;;3.45;0.93;;;;;;;;;;5070132;28;21026;-59
2021/10/03 08:45:47;;;;;;;3.47;0.85;;;;;;;;;;5071015;28;20140;-61
2021/10/03 08:48:14;;;;;;;2.45;0.70;;;;;;;;;;5074744;28;20147;-60
2021/10/03 08:50:40;;;;;;;4.80;0.88;;;;;;;;;;5071898;28;20488;-60
2021/10/03 08:53:06;;;;;;;3.28;1.02;;;;;;;;;;5072779;28;20040;-60
2021/10/03 08:55:32;;;;;;;2.67;0.88;;;;;;;;;;5054803;28;20047;-61
2021/10/03 08:57:57;;;;;;;2.25;0.88;;;;;;;;;;5074552;28;20047;-60
2021/10/03 09:00:24;;;;;;;3.58;0.90;;;;;;;;;;5071385;28;20098;-59
2021/10/03 09:02:55;;;;;;;2.47;0.82;;;;;;;;;;5071667;28;20043;-59
2021/10/03 09:05:22;;;;;;;4.25;0.80;;;;;;;;;;5069414;28;20143;-60
2021/10/03 09:07:57;;;;;;;3.35;1.10;;;;;;;;;;5070798;28;20041;-60
2021/10/03 09:10:23;;;;;;;1.77;0.70;;;;;;;;;;5068181;28;20048;-59
2021/10/03 09:12:49;;;;;;;2.60;0.80;;;;;;;;;;5035827;28;20048;-58
2021/10/03 09:15:18;;;;;;;4.05;0.90;;;;;;;;;;5051205;28;20505;-59
2021/10/03 09:17:52;;;;;;;2.85;0.75;;;;;;;;;;5072525;28;20032;-60
2021/10/03 09:20:20;;;;;;;3.53;0.75;;;;;;;;;;5071780;28;20568;-58
2021/10/03 09:22:54;;;;;;;2.22;0.80;;;;;;;;;;5071945;28;20483;-60
2021/10/03 09:25:37;;;;;;;3.15;0.80;;;;;;;;;;5072234;28;20060;-59
2021/10/03 09:28:05;;;;;;;2.67;0.77;;;;;;;;;;5071431;28;20055;-60
2021/10/03 09:30:31;;;;;;;2.92;0.77;;;;;;;;;;5073547;28;20082;-59
2021/10/03 09:32:58;;;;;;;2.60;0.90;;;;;;;;;;5073327;28;20036;-59
2021/10/03 09:35:25;;;;;;;2.00;0.63;;;;;;;;;;5072242;28;20036;-60
2021/10/03 09:37:51;;;;;;;2.28;0.80;;;;;;;;;;5071351;28;20050;-59
2021/10/03 09:40:17;;;;;;;4.35;0.85;;;;;;;;;;5072063;28;20129;-58
2021/10/03 09:43:13;;;;;;;3.65;0.80;;;;;;;;;;5073692;28;20048;-59
2021/10/03 09:45:39;;;;;;;3.28;0.90;;;;;;;;;;5050801;28;20051;-57
2021/10/03 09:48:06;;;;;;;2.28;0.60;;;;;;;;;;5050688;28;20401;-58
2021/10/03 09:50:33;;;;;;;8.23;0.82;;;;;;;;;;5070594;28;20663;-59
2021/10/03 09:52:59;;;;;;;2.28;0.70;;;;;;;;;;5071951;28;20117;-60
2021/10/03 09:55:25;;;;;;;5.00;0.80;;;;;;;;;;5069517;28;20119;-61
2021/10/03 09:57:53;;;;;;;3.30;0.80;;;;;;;;;;5072164;28;20115;-61
2021/10/03 10:00:18;;;;;;;2.15;0.70;;;;;;;;;;5069665;28;20048;-60
2021/10/03 10:02:46;;;;;;;2.17;0.70;;;;;;;;;;5072131;28;20055;-60
2021/10/03 10:05:11;;;;;;;2.75;0.90;;;;;;;;;;5050237;28;20093;-59
2021/10/03 10:07:38;;;;;;;3.70;0.80;;;;;;;;;;5070695;28;20041;-59
2021/10/03 10:10:05;;;;;;;3.60;0.77;;;;;;;;;;5068553;28;20052;-59
2021/10/03 10:12:33;;;;;;;2.88;0.82;;;;;;;;;;5070823;28;20048;-57
2021/10/03 10:15:04;;;;;;;4.40;1.27;;;;;;;;;;5071695;28;20028;-59
2021/10/03 10:17:34;;;;;;;5.38;0.93;;;;;;;;;;5051246;28;20032;-58
2021/10/03 10:20:01;;;;;;;3.28;1.00;;;;;;;;;;5070432;28;20432;-60
2021/10/03 10:22:53;;;;;;;2.75;0.95;;;;;;;;;;5070290;28;20075;-56
2021/10/03 10:25:36;;;;;;;4.28;1.00;;;;;;;;;;5004548;28;20081;-59
2021/10/03 10:28:04;;;;;;;3.10;1.00;;;;;;;;;;5002846;28;20029;-59
2021/10/03 10:30:30;;;;;;;6.07;1.20;;;;;;;;;;5004473;28;20037;-60
2021/10/03 10:32:56;;;;;;;5.55;1.08;;;;;;;;;;5005815;28;20025;-59
2021/10/03 10:35:25;;;;;;;4.80;1.30;;;;;;;;;;5006687;28;20053;-59
2021/10/03 10:37:56;;;;;;;5.57;1.02;;;;;;;;;;5009669;28;20243;-59
2021/10/03 10:40:25;;;;;;;8.63;1.15;;;;;;;;;;5007377;28;20488;-58
2021/10/03 10:42:53;;;;;;;6.45;1.20;;;;;;;;;;5007357;28;20057;-58
2021/10/03 10:45:28;;;;;;;4.80;0.95;;;;;;;;;;5004335;28;20069;-58
2021/10/03 10:48:08;;;;;;;7.40;1.10;;;;;;;;;;5006806;28;20045;-57
2021/10/03 10:50:35;;;;;;;4.70;1.15;;;;;;;;;;5005909;28;20037;-59
2021/10/03 10:53:17;;;;;;;3.40;1.05;;;;;;;;;;4988932;28;20075;-57
2021/10/03 10:55:59;;;;;;;4.45;1.10;;;;;;;;;;5020334;28;20120;-60
2021/10/03 10:58:24;;;;;;;2.92;0.90;;;;;;;;;;5053992;28;20051;-60
2021/10/03 11:01:00;;;;;;;5.07;0.93;;;;;;;;;;5051897;28;20071;-60
2021/10/03 11:03:41;;;;;;;2.80;0.95;;;;;;;;;;5069303;28;20426;-59
2021/10/03 11:06:11;;;;;;;5.93;1.00;;;;;;;;;;5067794;28;20042;-59
2021/10/03 11:08:55;;;;;;;4.43;1.10;;;;;;;;;;5071881;28;20028;-60
2021/10/03 11:11:21;;;;;;;3.38;1.05;;;;;;;;;;5071152;28;20444;-60
2021/10/03 11:13:48;;;;;;;3.33;0.90;;;;;;;;;;5071716;28;20082;-60
2021/10/03 11:16:30;;;;;;;4.88;0.82;;;;;;;;;;5069308;28;20099;-59
2021/10/03 11:18:57;;;;;;;2.20;0.70;;;;;;;;;;5055134;28;20040;-60
2021/10/03 11:21:24;;;;;;;2.85;0.90;;;;;;;;;;5072569;28;20050;-58
2021/10/03 11:23:50;;;;;;;3.00;0.90;;;;;;;;;;5070991;28;20049;-59
2021/10/03 11:26:16;;;;;;;3.63;1.27;;;;;;;;;;5052372;28;20043;-60
2021/10/03 11:28:49;;;;;;;6.07;1.17;;;;;;;;;;5073390;28;20036;-59
2021/10/03 11:31:32;;;;;;;2.30;0.73;;;;;;;;;;5074244;28;20029;-59
2021/10/03 11:33:58;;;;;;;1.95;0.70;;;;;;;;;;5069178;28;20055;-58
2021/10/03 11:36:24;;;;;;;3.97;1.20;;;;;;;;;;5070149;28;20481;-59
2021/10/03 11:38:50;;;;;;;2.92;1.20;;;;;;;;;;5071341;28;20056;-60
2021/10/03 11:41:16;;;;;;;4.15;0.85;;;;;;;;;;5069886;28;20938;-58
2021/10/03 11:43:42;;;;;;;2.85;0.80;;;;;;;;;;5051177;28;20560;-59
2021/10/03 11:46:07;;;;;;;5.30;0.95;;;;;;;;;;5069721;28;20051;-60
2021/10/03 11:48:33;;;;;;;6.68;1.00;;;;;;;;;;5070733;28;20041;-60
2021/10/03 11:51:00;;;;;;;2.38;0.70;;;;;;;;;;5069378;28;20044;-60
2021/10/03 11:53:31;;;;;;;4.45;0.85;;;;;;;;;;5068575;28;20055;-59
2021/10/03 11:56:23;;;;;;;3.15;0.70;;;;;;;;;;5069222;28;20117;-56
2021/10/03 11:58:49;;;;;;;2.90;0.90;;;;;;;;;;5065707;28;20131;-59
2021/10/03 12:01:15;;;;;;;2.00;0.65;;;;;;;;;;5073966;28;20043;-58
2021/10/03 12:03:47;;;;;;;3.00;0.90;;;;;;;;;;5072730;28;20416;-61
2021/10/03 12:06:18;;;;;;;5.70;0.90;;;;;;;;;;5072949;28;20611;-60
2021/10/03 12:08:46;;;;;;;3.10;1.10;;;;;;;;;;5073083;28;20029;-60
2021/10/03 12:11:12;;;;;;;3.67;1.10;;;;;;;;;;5073602;28;20044;-59
2021/10/03 12:13:38;;;;;;;3.15;1.15;;;;;;;;;;5072672;28;20072;-59
2021/10/03 12:16:12;;;;;;;5.97;1.13;;;;;;;;;;5072755;28;20155;-60
2021/10/03 12:18:43;;;;;;;3.63;1.20;;;;;;;;;;5073683;28;20174;-60
2021/10/03 12:21:13;;;;;;;3.50;1.00;;;;;;;;;;5074794;28;20123;-58
2021/10/03 12:23:42;;;;;;;4.63;1.30;;;;;;;;;;5073950;28;20051;-59
2021/10/03 12:26:11;;;;;;;3.00;1.10;;;;;;;;;;5075618;28;20040;-61
2021/10/03 12:28:56;;;;;;;5.68;1.20;;;;;;;;;;5075412;28;20101;-60
2021/10/03 12:31:40;;;;;;;3.70;1.10;;;;;;;;;;5076173;28;20052;-59
2021/10/03 12:34:08;;;;;;;3.58;1.10;;;;;;;;;;5076860;28;20032;-58
2021/10/03 12:36:34;;;;;;;3.50;1.05;;;;;;;;;;5058743;28;20032;-57
2021/10/03 12:39:00;;;;;;;5.68;1.08;;;;;;;;;;5076212;28;20033;-60
2021/10/03 12:41:26;;;;;;;3.67;1.50;;;;;;;;;;5078849;28;20050;-59
2021/10/03 12:43:55;;;;;;;4.20;1.17;;;;;;;;;;5078480;28;20059;-59
2021/10/03 12:46:21;;;;;;;4.50;1.55;;;;;;;;;;5075798;28;20036;-59
2021/10/03 12:48:47;;;;;;;5.72;1.20;;;;;;;;;;5077073;28;20042;-59
2021/10/03 12:51:13;;;;;;;4.68;1.50;;;;;;;;;;5078001;28;20040;-59
2021/10/03 12:53:39;;;;;;;3.50;1.00;;;;;;;;;;5073523;28;20337;-59
2021/10/03 12:56:05;;;;;;;5.32;1.48;;;;;;;;;;5074358;28;20048;-59
2021/10/03 12:58:31;;;;;;;5.30;1.20;;;;;;;;;;5075176;28;20051;-59
2021/10/03 13:00:56;;;;;;;6.10;1.30;;;;;;;;;;5073652;28;21929;-60
2021/10/03 13:03:22;;;;;;;2.85;1.02;;;;;;;;;;5072372;28;20044;-59
2021/10/03 13:05:48;;;;;;;5.10;1.40;;;;;;;;;;5072695;28;20483;-58
2021/10/03 13:08:14;;;;;;;3.03;1.20;;;;;;;;;;5071635;28;20051;-58
2021/10/03 13:10:41;;;;;;;4.30;1.30;;;;;;;;;;5071672;28;20044;-60
2021/10/03 13:13:07;;;;;;;4.10;1.17;;;;;;;;;;5074766;28;20151;-58
2021/10/03 13:15:33;;;;;;;8.57;1.33;;;;;;;;;;5074464;28;20741;-58
2021/10/03 13:17:59;;;;;;;4.10;1.33;;;;;;;;;;5072807;28;20040;-58
2021/10/03 13:20:25;;;;;;;4.18;1.50;;;;;;;;;;5073377;28;20043;-58
2021/10/03 13:22:51;;;;;;;3.53;1.40;;;;;;;;;;5073299;28;20032;-59
2021/10/03 13:25:17;;;;;;;2.95;1.08;;;;;;;;;;5072445;28;20044;-59
2021/10/03 13:27:43;;;;;;;4.22;1.30;;;;;;;;;;5071801;28;20139;-59
2021/10/03 13:30:10;;;;;;;3.40;1.15;;;;;;;;;;5071924;28;20519;-57
2021/10/03 13:32:36;;;;;;;4.78;1.00;;;;;;;;;;5072345;28;20032;-59
2021/10/03 13:35:02;;;;;;;4.97;1.35;;;;;;;;;;5074203;28;20048;-59
2021/10/03 13:37:28;;;;;;;3.97;1.42;;;;;;;;;;5069919;28;20143;-59
2021/10/03 13:39:54;;;;;;;4.03;1.10;;;;;;;;;;5052482;28;20626;-58
2021/10/03 13:42:21;;;;;;;3.17;1.20;;;;;;;;;;5071295;28;20068;-59
2021/10/03 13:44:47;;;;;;;3.45;1.17;;;;;;;;;;5071663;28;20571;-56
2021/10/03 13:47:13;;;;;;;3.13;1.00;;;;;;;;;;5052448;28;20032;-59
2021/10/03 13:49:39;;;;;;;2.60;1.02;;;;;;;;;;5070750;28;20473;-58
2021/10/03 13:52:05;;;;;;;4.65;1.35;;;;;;;;;;5071050;28;20496;-60
2021/10/03 13:54:30;;;;;;;2.90;1.10;;;;;;;;;;5072370;28;20075;-60
2021/10/03 13:56:56;;;;;;;3.30;1.20;;;;;;;;;;5071738;28;20181;-60
2021/10/03 13:59:23;;;;;;;5.05;1.10;;;;;;;;;;5068689;28;20066;-60
2021/10/03 14:01:49;;;;;;;4.60;1.20;;;;;;;;;;5072354;28;20036;-58
2021/10/03 14:04:15;;;;;;;4.43;1.48;;;;;;;;;;5070851;28;20391;-59
2021/10/03 14:06:41;;;;;;;5.30;1.20;;;;;;;;;;5072477;28;20116;-59
2021/10/03 14:09:08;;;;;;;3.20;1.05;;;;;;;;;;5073012;28;20664;-59
2021/10/03 14:11:34;;;;;;;6.00;0.90;;;;;;;;;;5070658;28;20055;-58
2021/10/03 14:14:00;;;;;;;2.80;0.95;;;;;;;;;;5074654;28;20025;-59
2021/10/03 14:16:26;;;;;;;3.75;1.20;;;;;;;;;;5070045;28;20044;-61
2021/10/03 14:18:53;;;;;;;4.40;1.02;;;;;;;;;;5073032;28;20471;-59
2021/10/03 14:21:19;;;;;;;5.20;1.10;;;;;;;;;;5070432;28;20119;-58
2021/10/03 14:23:45;;;;;;;2.72;0.90;;;;;;;;;;5072229;28;20055;-59
2021/10/03 14:26:11;;;;;;;2.85;0.93;;;;;;;;;;5051847;28;20036;-58
2021/10/03 14:28:36;;;;;;;4.90;1.00;;;;;;;;;;5071989;28;20044;-58
2021/10/03 14:31:03;;;;;;;3.10;0.95;;;;;;;;;;5073824;28;20040;-60
2021/10/03 14:33:29;;;;;;;3.45;1.13;;;;;;;;;;5073756;28;20036;-59
2021/10/03 14:35:54;;;;;;;3.10;1.00;;;;;;;;;;5071905;28;20089;-60
2021/10/03 14:38:20;;;;;;;3.60;1.05;;;;;;;;;;5070756;28;20599;-59
2021/10/03 14:40:46;;;;;;;2.67;0.82;;;;;;;;;;5060738;28;20036;-58
2021/10/03 14:43:12;;;;;;;6.18;0.90;;;;;;;;;;5071498;28;20036;-61